This is the latest recevied weather packets stored in our database for station/object JQ1YUX-13. If no packets are shown the sender has not sent any weather packets the latest 10 day(s).
| Time | Temp. | Humidity | Pressure | Rain* | Wind** | Luminosity | Snow |
|---|---|---|---|---|---|---|---|
| 1777972352 | 18.89° C | 56% | 1020.6 hPa | 0 mm | - | - | - |
| 1777971453 | 18.89° C | 57% | 1020.5 hPa | 0 mm | - | - | - |
| 1777970551 | 19.44° C | 57% | 1020.2 hPa | 0 mm | - | - | - |
| 1777969652 | 20° C | 56% | 1020.2 hPa | 0 mm | - | - | - |
| 1777968753 | 20.56° C | 56% | 1020.1 hPa | 0 mm | - | - | - |
| 1777967851 | 20.56° C | 54% | 1020 hPa | 0 mm | - | - | - |
| 1777966952 | 21.67° C | 49% | 1019.7 hPa | 0 mm | - | - | - |
| 1777966052 | 21.67° C | 48% | 1019.5 hPa | 0 mm | - | - | - |
| 1777965151 | 22.22° C | 45% | 1019.3 hPa | 0 mm | - | - | - |
| 1777964252 | 22.22° C | 48% | 1019.2 hPa | 0 mm | - | - | - |
| 1777963352 | 22.22° C | 45% | 1019.2 hPa | 0 mm | - | - | - |
| 1777962453 | 22.78° C | 41% | 1019 hPa | 0 mm | - | - | - |
| 1777961552 | 22.78° C | 36% | 1018.9 hPa | 0 mm | - | - | - |
| 1777960651 | 23.33° C | 37% | 1018.8 hPa | 0 mm | - | - | - |
| 1777959752 | 23.33° C | 34% | 1018.8 hPa | 0 mm | - | - | - |
| 1777958852 | 25° C | 31% | 1018.7 hPa | 0 mm | - | - | - |
| 1777957952 | 25° C | 30% | 1018.8 hPa | 0 mm | - | - | - |
| 1777957053 | 23.89° C | 33% | 1019 hPa | 0 mm | - | - | - |
| 1777956152 | 23.89° C | 32% | 1019 hPa | 0 mm | - | - | - |
| 1777955251 | 23.89° C | 32% | 1019 hPa | 0 mm | - | - | - |
| 1777954353 | 24.44° C | 25% | 1019 hPa | 0 mm | - | - | - |
| 1777953451 | 24.44° C | 25% | 1018.9 hPa | 0 mm | - | - | - |
| 1777952552 | 23.33° C | 26% | 1018.9 hPa | 0 mm | - | - | - |
| 1777951653 | 23.89° C | 27% | 1018.9 hPa | 0 mm | - | - | - |
| 1777950751 | 22.22° C | 27% | 1019 hPa | 0 mm | - | - | - |
* Rain latest hour (hover to see other rain measurements)
** Current wind speed in m/s (hover to see current wind gust speed)